Pacific Advance — VROQ5 — position and weather

sailwx.info

Track history (hours):
 
Tides and Currents Weather Stations Pressure Air Temp Water Temp Dewpoint Dewpoint Depression Visibility Wind Speed Wind Dir Waves Ship Positions

Pacific Advance

Last reported at 2018-Jun-15 04:11 UTC. Time now 2018-Jun-21 10:05 UTC.
Position S 28°07' E 033°06'.

Length 200 m; draft 10.5 m.

Type: Cargo ship. MMSI: 477078900.

Date/timePositionNaut miles runAvg speedWind from/ knotsBaromVisibWave heightAir tempDewpointWater temp
2018-Jun-15 04:11S 28°07' E 033°06'2 9.7
2018-Jun-15 03:56S 28°09' E 033°04'4 9.6
2018-Jun-15 03:30S 28°13' E 033°02'5 9.5
2018-Jun-15 03:00S 28°17' E 032°60'5 9.3
2018-Jun-15 02:31S 28°21' E 032°58'5 9.2
2018-Jun-15 02:00S 28°25' E 032°55'5 9.3
2018-Jun-15 01:30S 28°30' E 032°53'5 9.0
2018-Jun-15 01:00S 28°34' E 032°50'4 8.7
2018-Jun-15 00:30S 28°37' E 032°48'4 8.6
2018-Jun-15 00:00S 28°41' E 032°46'4 8.6
2018-Jun-14 23:30S 28°45' E 032°44'4 8.3
2018-Jun-14 23:00S 28°49' E 032°42'4 8.3
2018-Jun-14 22:30S 28°53' E 032°40'4 7.9
2018-Jun-14 22:01S 28°56' E 032°38'4 8.0
2018-Jun-14 21:30S 28°60' E 032°35'4 7.8
2018-Jun-14 21:00S 29°03' E 032°33'4 7.6
2018-Jun-14 20:30S 29°07' E 032°32'4 7.6
2018-Jun-14 20:00S 29°10' E 032°29'4 7.7
2018-Jun-14 19:31S 29°13' E 032°27'4 7.7
2018-Jun-14 19:01S 29°17' E 032°25'4 8.0
2018-Jun-14 18:30S 29°20' E 032°23'4 8.1
2018-Jun-14 18:00S 29°24' E 032°21'4 8.6
2018-Jun-14 17:30S 29°28' E 032°19'4 8.8
2018-Jun-14 17:00S 29°32' E 032°17'4 8.8
2018-Jun-14 16:31S 29°36' E 032°15'5 9.0
2018-Jun-14 16:00S 29°40' E 032°12'5 9.6
2018-Jun-14 15:30S 29°44' E 032°10'5 9.7
2018-Jun-14 15:00S 29°48' E 032°07'5 9.5
2018-Jun-14 14:30S 29°52' E 032°04'5 9.6
2018-Jun-14 14:00S 29°56' E 032°02'5 9.8
2018-Jun-14 13:31S 30°01' E 031°59'5 9.9
2018-Jun-14 13:00S 30°05' E 031°55'510.0
2018-Jun-14 12:30S 30°09' E 031°52'5 9.6
2018-Jun-14 12:00S 30°12' E 031°48'510.2
2018-Jun-14 11:30S 30°16' E 031°44'510.1
2018-Jun-14 11:00S 30°20' E 031°40'510.1
2018-Jun-14 10:28S 30°23' E 031°36'510.2
2018-Jun-14 10:00S 30°27' E 031°32'510.1
2018-Jun-14 09:30S 30°31' E 031°28'510.0
2018-Jun-14 09:01S 30°34' E 031°24'5 9.8
2018-Jun-14 08:30S 30°38' E 031°20'5 9.8
2018-Jun-14 08:00S 30°42' E 031°17'5 9.9
2018-Jun-14 07:30S 30°46' E 031°13'510.0
2018-Jun-14 07:00S 30°49' E 031°09'510.2
2018-Jun-14 06:30S 30°53' E 031°05'510.2
2018-Jun-14 06:01S 30°57' E 031°01'5 9.9
2018-Jun-14 05:30S 31°00' E 030°57'510.0
2018-Jun-14 05:00S 31°04' E 030°53'5 9.9
2018-Jun-14 04:31S 31°08' E 030°49'5 9.9
2018-Jun-14 04:01S 31°12' E 030°46'5 9.9
2018-Jun-14 03:31S 31°15' E 030°42'5 9.8
2018-Jun-14 03:01S 31°19' E 030°38'5 9.8
2018-Jun-14 02:31S 31°23' E 030°34'5 9.7
2018-Jun-14 02:01S 31°26' E 030°30'5 9.7
2018-Jun-14 01:30S 31°30' E 030°26'5 9.8
2018-Jun-14 00:57S 31°34' E 030°22'  
Track history (hours):
 
Tides and Currents Weather Stations Pressure Air Temp Water Temp Dewpoint Dewpoint Depression Visibility Wind Speed Wind Dir Waves Ship Positions

Pacific Advance

Last reported at 2018-Jun-15 04:11 UTC. Time now 2018-Jun-21 10:05 UTC.
Position S 28°07' E 033°06'.

Length 200 m; draft 10.5 m.

Type: Cargo ship. MMSI: 477078900.

Date/timePositionNaut miles runAvg speedWind from/ knotsBaromVisibWave heightAir tempDewpointWater temp
2018-Jun-15 04:11S 28°07' E 033°06'2 9.7
2018-Jun-15 03:56S 28°09' E 033°04'4 9.6
2018-Jun-15 03:30S 28°13' E 033°02'5 9.5
2018-Jun-15 03:00S 28°17' E 032°60'5 9.3
2018-Jun-15 02:31S 28°21' E 032°58'5 9.2
2018-Jun-15 02:00S 28°25' E 032°55'5 9.3
2018-Jun-15 01:30S 28°30' E 032°53'5 9.0
2018-Jun-15 01:00S 28°34' E 032°50'4 8.7
2018-Jun-15 00:30S 28°37' E 032°48'4 8.6
2018-Jun-15 00:00S 28°41' E 032°46'4 8.6
2018-Jun-14 23:30S 28°45' E 032°44'4 8.3
2018-Jun-14 23:00S 28°49' E 032°42'4 8.3
2018-Jun-14 22:30S 28°53' E 032°40'4 7.9
2018-Jun-14 22:01S 28°56' E 032°38'4 8.0
2018-Jun-14 21:30S 28°60' E 032°35'4 7.8
2018-Jun-14 21:00S 29°03' E 032°33'4 7.6
2018-Jun-14 20:30S 29°07' E 032°32'4 7.6
2018-Jun-14 20:00S 29°10' E 032°29'4 7.7
2018-Jun-14 19:31S 29°13' E 032°27'4 7.7
2018-Jun-14 19:01S 29°17' E 032°25'4 8.0
2018-Jun-14 18:30S 29°20' E 032°23'4 8.1
2018-Jun-14 18:00S 29°24' E 032°21'4 8.6
2018-Jun-14 17:30S 29°28' E 032°19'4 8.8
2018-Jun-14 17:00S 29°32' E 032°17'4 8.8
2018-Jun-14 16:31S 29°36' E 032°15'5 9.0
2018-Jun-14 16:00S 29°40' E 032°12'5 9.6
2018-Jun-14 15:30S 29°44' E 032°10'5 9.7
2018-Jun-14 15:00S 29°48' E 032°07'5 9.5
2018-Jun-14 14:30S 29°52' E 032°04'5 9.6
2018-Jun-14 14:00S 29°56' E 032°02'5 9.8
2018-Jun-14 13:31S 30°01' E 031°59'5 9.9
2018-Jun-14 13:00S 30°05' E 031°55'510.0
2018-Jun-14 12:30S 30°09' E 031°52'5 9.6
2018-Jun-14 12:00S 30°12' E 031°48'510.2
2018-Jun-14 11:30S 30°16' E 031°44'510.1
2018-Jun-14 11:00S 30°20' E 031°40'510.1
2018-Jun-14 10:28S 30°23' E 031°36'510.2
2018-Jun-14 10:00S 30°27' E 031°32'510.1
2018-Jun-14 09:30S 30°31' E 031°28'510.0
2018-Jun-14 09:01S 30°34' E 031°24'5 9.8
2018-Jun-14 08:30S 30°38' E 031°20'5 9.8
2018-Jun-14 08:00S 30°42' E 031°17'5 9.9
2018-Jun-14 07:30S 30°46' E 031°13'510.0
2018-Jun-14 07:00S 30°49' E 031°09'510.2
2018-Jun-14 06:30S 30°53' E 031°05'510.2
2018-Jun-14 06:01S 30°57' E 031°01'5 9.9
2018-Jun-14 05:30S 31°00' E 030°57'510.0
2018-Jun-14 05:00S 31°04' E 030°53'5 9.9
2018-Jun-14 04:31S 31°08' E 030°49'5 9.9
2018-Jun-14 04:01S 31°12' E 030°46'5 9.9
2018-Jun-14 03:31S 31°15' E 030°42'5 9.8
2018-Jun-14 03:01S 31°19' E 030°38'5 9.8
2018-Jun-14 02:31S 31°23' E 030°34'5 9.7
2018-Jun-14 02:01S 31°26' E 030°30'5 9.7
2018-Jun-14 01:30S 31°30' E 030°26'5 9.8
2018-Jun-14 00:57S 31°34' E 030°22'  

Dump ship's entire track history